Amissville, Virginia
Current Conditions -  °F | °C
As of 1:37 PM on Sunday 21 Dec 2014 (Local Time) from KCJR Reporting Station
Clear Clear  
Wind Chill: 43°   Ceiling: Unl
Heat Index: 43°   Visibility: 10mi
Dew Point: 27°   Wind: 0mph
Humidity: 53%   Direction: NA
Pressure: 30.3"   Gusts: NA
Location:  38.67°N, 77.99°W
Report Text: KCJR 211837Z AUTO 00000KT 10SM CLR 06/M03 A3030 RMK AO2
Loading
Personal Weather Stations






























Interactive Weather Map New forecast layout! Learn more

10-Day Weather Forecast

Advertisements
Track Severe Weather on mobile